sensor_id;sensor_type;location;lat;lon;timestamp;temperature;humidity
19928;DHT22;10126;50.876;4.470;2022-08-03T00:00:49;23.60;99.90
19928;DHT22;10126;50.876;4.470;2022-08-03T00:02:50;23.50;99.90
19928;DHT22;10126;50.876;4.470;2022-08-03T00:04:51;23.50;99.90
19928;DHT22;10126;50.876;4.470;2022-08-03T00:06:51;23.40;99.90
19928;DHT22;10126;50.876;4.470;2022-08-03T00:08:52;23.40;99.90
19928;DHT22;10126;50.876;4.470;2022-08-03T00:10:52;23.50;99.90
19928;DHT22;10126;50.876;4.470;2022-08-03T00:12:53;23.50;99.90
19928;DHT22;10126;50.876;4.470;2022-08-03T00:14:54;23.40;99.90
19928;DHT22;10126;50.876;4.470;2022-08-03T00:16:55;23.40;99.90
19928;DHT22;10126;50.876;4.470;2022-08-03T00:18:55;23.40;99.90
19928;DHT22;10126;50.876;4.470;2022-08-03T00:20:56;23.40;99.90
19928;DHT22;10126;50.876;4.470;2022-08-03T00:22:56;23.30;99.90
19928;DHT22;10126;50.876;4.470;2022-08-03T00:24:57;23.20;99.90
19928;DHT22;10126;50.876;4.470;2022-08-03T00:26:59;23.10;99.90
19928;DHT22;10126;50.876;4.470;2022-08-03T00:29:00;23.20;99.90
19928;DHT22;10126;50.876;4.470;2022-08-03T00:31:00;23.00;99.90
19928;DHT22;10126;50.876;4.470;2022-08-03T00:33:01;23.10;99.90
19928;DHT22;10126;50.876;4.470;2022-08-03T00:35:02;23.10;99.90
19928;DHT22;10126;50.876;4.470;2022-08-03T00:37:03;23.10;99.90
19928;DHT22;10126;50.876;4.470;2022-08-03T00:39:04;23.00;99.90
19928;DHT22;10126;50.876;4.470;2022-08-03T00:41:04;23.10;99.90
19928;DHT22;10126;50.876;4.470;2022-08-03T00:43:06;23.10;99.90
19928;DHT22;10126;50.876;4.470;2022-08-03T00:45:07;23.10;99.90
19928;DHT22;10126;50.876;4.470;2022-08-03T00:47:08;23.10;99.90
19928;DHT22;10126;50.876;4.470;2022-08-03T00:49:09;23.10;99.90
19928;DHT22;10126;50.876;4.470;2022-08-03T00:51:10;23.10;99.90
19928;DHT22;10126;50.876;4.470;2022-08-03T00:53:11;23.10;99.90
19928;DHT22;10126;50.876;4.470;2022-08-03T00:55:12;23.10;99.90
19928;DHT22;10126;50.876;4.470;2022-08-03T00:57:13;23.10;99.90
19928;DHT22;10126;50.876;4.470;2022-08-03T00:59:15;23.10;99.90
19928;DHT22;10126;50.876;4.470;2022-08-03T01:01:15;23.10;99.90
19928;DHT22;10126;50.876;4.470;2022-08-03T01:03:16;23.10;99.90
19928;DHT22;10126;50.876;4.470;2022-08-03T01:05:17;23.00;99.90
19928;DHT22;10126;50.876;4.470;2022-08-03T01:10:38;22.70;99.90
19928;DHT22;10126;50.876;4.470;2022-08-03T01:13:02;22.60;99.90
19928;DHT22;10126;50.876;4.470;2022-08-03T01:15:28;22.80;99.90
19928;DHT22;10126;50.876;4.470;2022-08-03T01:17:39;22.70;99.90
19928;DHT22;10126;50.876;4.470;2022-08-03T01:19:53;22.60;99.90
19928;DHT22;10126;50.876;4.470;2022-08-03T01:24:36;22.60;99.90
19928;DHT22;10126;50.876;4.470;2022-08-03T01:27:20;22.50;99.90
19928;DHT22;10126;50.876;4.470;2022-08-03T01:32:04;22.50;99.90
19928;DHT22;10126;50.876;4.470;2022-08-03T01:34:11;22.50;99.90
19928;DHT22;10126;50.876;4.470;2022-08-03T01:36:16;22.40;99.90
19928;DHT22;10126;50.876;4.470;2022-08-03T01:38:23;22.40;99.90
19928;DHT22;10126;50.876;4.470;2022-08-03T01:40:26;22.40;99.90
19928;DHT22;10126;50.876;4.470;2022-08-03T01:42:29;22.30;99.90
19928;DHT22;10126;50.876;4.470;2022-08-03T01:44:40;22.40;99.90
19928;DHT22;10126;50.876;4.470;2022-08-03T01:46:42;22.30;99.90
19928;DHT22;10126;50.876;4.470;2022-08-03T01:48:44;22.40;99.90
19928;DHT22;10126;50.876;4.470;2022-08-03T01:50:46;22.40;99.90
19928;DHT22;10126;50.876;4.470;2022-08-03T01:52:48;22.40;99.90
19928;DHT22;10126;50.876;4.470;2022-08-03T01:54:51;22.30;99.90
19928;DHT22;10126;50.876;4.470;2022-08-03T01:56:53;22.30;99.90
19928;DHT22;10126;50.876;4.470;2022-08-03T01:58:57;22.40;99.90
19928;DHT22;10126;50.876;4.470;2022-08-03T02:01:00;22.40;99.90
19928;DHT22;10126;50.876;4.470;2022-08-03T02:03:04;22.30;99.90
19928;DHT22;10126;50.876;4.470;2022-08-03T02:05:08;22.40;99.90
19928;DHT22;10126;50.876;4.470;2022-08-03T02:07:11;22.40;99.90
19928;DHT22;10126;50.876;4.470;2022-08-03T02:09:14;22.10;99.90
19928;DHT22;10126;50.876;4.470;2022-08-03T02:11:15;21.90;99.90
19928;DHT22;10126;50.876;4.470;2022-08-03T02:13:17;21.70;99.90
19928;DHT22;10126;50.876;4.470;2022-08-03T02:15:19;21.60;99.90
19928;DHT22;10126;50.876;4.470;2022-08-03T02:17:22;21.50;99.90
19928;DHT22;10126;50.876;4.470;2022-08-03T02:19:25;21.50;99.90
19928;DHT22;10126;50.876;4.470;2022-08-03T02:21:29;21.50;99.90
19928;DHT22;10126;50.876;4.470;2022-08-03T02:23:31;21.50;99.90
19928;DHT22;10126;50.876;4.470;2022-08-03T02:25:43;21.50;99.90
19928;DHT22;10126;50.876;4.470;2022-08-03T02:28:09;21.50;99.90
19928;DHT22;10126;50.876;4.470;2022-08-03T02:30:11;21.40;99.90
19928;DHT22;10126;50.876;4.470;2022-08-03T02:32:16;21.30;99.90
19928;DHT22;10126;50.876;4.470;2022-08-03T02:34:22;21.20;99.90
19928;DHT22;10126;50.876;4.470;2022-08-03T02:36:28;21.20;99.90
19928;DHT22;10126;50.876;4.470;2022-08-03T02:38:35;21.30;99.90
19928;DHT22;10126;50.876;4.470;2022-08-03T02:40:36;21.20;99.90
19928;DHT22;10126;50.876;4.470;2022-08-03T02:42:39;21.20;99.90
19928;DHT22;10126;50.876;4.470;2022-08-03T02:44:43;21.20;99.90
19928;DHT22;10126;50.876;4.470;2022-08-03T02:46:47;21.20;99.90
19928;DHT22;10126;50.876;4.470;2022-08-03T02:48:51;21.10;99.90
19928;DHT22;10126;50.876;4.470;2022-08-03T02:50:57;21.00;99.90
19928;DHT22;10126;50.876;4.470;2022-08-03T02:52:59;21.00;99.90
19928;DHT22;10126;50.876;4.470;2022-08-03T02:55:02;20.90;99.90
19928;DHT22;10126;50.876;4.470;2022-08-03T02:57:06;20.90;99.90
19928;DHT22;10126;50.876;4.470;2022-08-03T02:59:08;20.80;99.90
19928;DHT22;10126;50.876;4.470;2022-08-03T03:01:10;20.80;99.90
19928;DHT22;10126;50.876;4.470;2022-08-03T03:03:12;20.80;99.90
19928;DHT22;10126;50.876;4.470;2022-08-03T03:05:14;20.70;99.90
19928;DHT22;10126;50.876;4.470;2022-08-03T03:07:16;20.80;99.90
19928;DHT22;10126;50.876;4.470;2022-08-03T03:09:17;20.70;99.90
19928;DHT22;10126;50.876;4.470;2022-08-03T03:11:21;20.70;99.90
19928;DHT22;10126;50.876;4.470;2022-08-03T03:13:23;20.70;99.90
19928;DHT22;10126;50.876;4.470;2022-08-03T03:15:26;20.60;99.90
19928;DHT22;10126;50.876;4.470;2022-08-03T03:17:27;20.60;99.90
19928;DHT22;10126;50.876;4.470;2022-08-03T03:19:30;20.60;99.90
19928;DHT22;10126;50.876;4.470;2022-08-03T03:21:32;20.50;99.90
19928;DHT22;10126;50.876;4.470;2022-08-03T03:23:36;20.50;99.90
19928;DHT22;10126;50.876;4.470;2022-08-03T03:25:37;20.50;99.90
19928;DHT22;10126;50.876;4.470;2022-08-03T03:27:38;20.50;99.90
19928;DHT22;10126;50.876;4.470;2022-08-03T03:29:40;20.40;99.90
19928;DHT22;10126;50.876;4.470;2022-08-03T03:31:41;20.40;99.90
19928;DHT22;10126;50.876;4.470;2022-08-03T03:33:42;20.30;99.90
19928;DHT22;10126;50.876;4.470;2022-08-03T03:35:44;20.20;99.90
19928;DHT22;10126;50.876;4.470;2022-08-03T03:37:46;20.30;99.90
19928;DHT22;10126;50.876;4.470;2022-08-03T03:39:46;20.20;99.90
19928;DHT22;10126;50.876;4.470;2022-08-03T03:41:47;20.20;99.90
19928;DHT22;10126;50.876;4.470;2022-08-03T03:43:49;20.10;99.90
19928;DHT22;10126;50.876;4.470;2022-08-03T03:45:50;20.10;99.90
19928;DHT22;10126;50.876;4.470;2022-08-03T03:47:53;20.10;99.90
19928;DHT22;10126;50.876;4.470;2022-08-03T03:49:53;20.20;99.90
19928;DHT22;10126;50.876;4.470;2022-08-03T03:51:55;20.20;99.90
19928;DHT22;10126;50.876;4.470;2022-08-03T03:53:57;20.20;99.90
19928;DHT22;10126;50.876;4.470;2022-08-03T03:55:58;20.10;99.90
19928;DHT22;10126;50.876;4.470;2022-08-03T03:57:58;20.30;99.90
19928;DHT22;10126;50.876;4.470;2022-08-03T03:59:59;20.30;99.90
19928;DHT22;10126;50.876;4.470;2022-08-03T04:02:00;20.40;99.90
19928;DHT22;10126;50.876;4.470;2022-08-03T04:04:00;20.40;99.90
19928;DHT22;10126;50.876;4.470;2022-08-03T04:06:21;20.40;99.90
19928;DHT22;10126;50.876;4.470;2022-08-03T04:08:40;20.40;99.90
19928;DHT22;10126;50.876;4.470;2022-08-03T04:13:07;20.50;99.90
19928;DHT22;10126;50.876;4.470;2022-08-03T04:15:11;20.50;99.90
19928;DHT22;10126;50.876;4.470;2022-08-03T04:17:12;20.50;99.90
19928;DHT22;10126;50.876;4.470;2022-08-03T04:19:23;20.50;99.90
19928;DHT22;10126;50.876;4.470;2022-08-03T04:21:27;20.30;99.90
19928;DHT22;10126;50.876;4.470;2022-08-03T04:23:33;20.30;99.90
19928;DHT22;10126;50.876;4.470;2022-08-03T04:25:36;20.20;99.90
19928;DHT22;10126;50.876;4.470;2022-08-03T04:27:40;20.30;99.90
19928;DHT22;10126;50.876;4.470;2022-08-03T04:29:47;20.20;99.90
19928;DHT22;10126;50.876;4.470;2022-08-03T04:31:49;20.30;99.90
19928;DHT22;10126;50.876;4.470;2022-08-03T04:33:52;20.30;99.90
19928;DHT22;10126;50.876;4.470;2022-08-03T04:35:54;20.40;99.90
19928;DHT22;10126;50.876;4.470;2022-08-03T04:38:01;20.40;99.90
19928;DHT22;10126;50.876;4.470;2022-08-03T04:40:06;20.50;99.90
19928;DHT22;10126;50.876;4.470;2022-08-03T04:42:08;20.60;99.90
19928;DHT22;10126;50.876;4.470;2022-08-03T04:44:11;20.60;99.90
19928;DHT22;10126;50.876;4.470;2022-08-03T04:46:13;20.60;99.90
19928;DHT22;10126;50.876;4.470;2022-08-03T04:48:15;20.70;99.90
19928;DHT22;10126;50.876;4.470;2022-08-03T04:50:16;20.80;99.90
19928;DHT22;10126;50.876;4.470;2022-08-03T04:52:17;20.80;99.90
19928;DHT22;10126;50.876;4.470;2022-08-03T04:54:17;20.80;99.90
19928;DHT22;10126;50.876;4.470;2022-08-03T04:56:18;20.90;99.90
19928;DHT22;10126;50.876;4.470;2022-08-03T04:58:19;20.90;99.90
19928;DHT22;10126;50.876;4.470;2022-08-03T05:00:20;20.80;99.90
19928;DHT22;10126;50.876;4.470;2022-08-03T05:02:21;21.00;99.90
19928;DHT22;10126;50.876;4.470;2022-08-03T05:04:21;21.10;99.90
19928;DHT22;10126;50.876;4.470;2022-08-03T05:06:22;21.10;99.90
19928;DHT22;10126;50.876;4.470;2022-08-03T05:08:23;21.00;99.90
19928;DHT22;10126;50.876;4.470;2022-08-03T05:10:23;21.10;99.90
19928;DHT22;10126;50.876;4.470;2022-08-03T05:12:24;21.20;99.90
19928;DHT22;10126;50.876;4.470;2022-08-03T05:14:24;21.60;99.90
19928;DHT22;10126;50.876;4.470;2022-08-03T05:16:25;21.90;99.90
19928;DHT22;10126;50.876;4.470;2022-08-03T05:18:26;22.20;99.90
19928;DHT22;10126;50.876;4.470;2022-08-03T05:20:26;22.70;99.90
19928;DHT22;10126;50.876;4.470;2022-08-03T05:22:27;24.00;99.90
19928;DHT22;10126;50.876;4.470;2022-08-03T05:24:28;25.50;99.90
19928;DHT22;10126;50.876;4.470;2022-08-03T05:26:28;27.20;99.90
19928;DHT22;10126;50.876;4.470;2022-08-03T05:28:29;28.50;99.90
19928;DHT22;10126;50.876;4.470;2022-08-03T05:30:29;29.50;99.90
19928;DHT22;10126;50.876;4.470;2022-08-03T05:32:30;30.30;99.90
19928;DHT22;10126;50.876;4.470;2022-08-03T05:34:31;30.70;99.90
19928;DHT22;10126;50.876;4.470;2022-08-03T05:36:31;31.30;99.90
19928;DHT22;10126;50.876;4.470;2022-08-03T05:38:32;32.20;99.90
19928;DHT22;10126;50.876;4.470;2022-08-03T05:40:33;32.60;99.90
19928;DHT22;10126;50.876;4.470;2022-08-03T05:42:36;33.40;99.90
19928;DHT22;10126;50.876;4.470;2022-08-03T05:44:37;34.10;99.90
19928;DHT22;10126;50.876;4.470;2022-08-03T05:46:38;34.40;99.90
19928;DHT22;10126;50.876;4.470;2022-08-03T05:48:38;34.20;99.90
19928;DHT22;10126;50.876;4.470;2022-08-03T05:50:39;34.30;99.90
19928;DHT22;10126;50.876;4.470;2022-08-03T05:52:40;34.80;99.90
19928;DHT22;10126;50.876;4.470;2022-08-03T05:54:42;35.20;99.90
19928;DHT22;10126;50.876;4.470;2022-08-03T05:56:43;35.60;99.90
19928;DHT22;10126;50.876;4.470;2022-08-03T05:58:47;36.20;99.90
19928;DHT22;10126;50.876;4.470;2022-08-03T06:00:47;36.10;99.90
19928;DHT22;10126;50.876;4.470;2022-08-03T06:02:48;36.30;99.90
19928;DHT22;10126;50.876;4.470;2022-08-03T06:04:49;36.80;99.90
19928;DHT22;10126;50.876;4.470;2022-08-03T06:06:49;36.70;99.90
19928;DHT22;10126;50.876;4.470;2022-08-03T06:08:50;36.80;99.90
19928;DHT22;10126;50.876;4.470;2022-08-03T06:10:51;36.90;99.90
19928;DHT22;10126;50.876;4.470;2022-08-03T06:12:51;36.80;99.90
19928;DHT22;10126;50.876;4.470;2022-08-03T06:14:52;37.20;99.90
19928;DHT22;10126;50.876;4.470;2022-08-03T06:16:52;37.00;99.90
19928;DHT22;10126;50.876;4.470;2022-08-03T06:18:53;36.60;99.90
19928;DHT22;10126;50.876;4.470;2022-08-03T06:20:54;36.20;99.90
19928;DHT22;10126;50.876;4.470;2022-08-03T06:22:55;36.50;99.90
19928;DHT22;10126;50.876;4.470;2022-08-03T06:24:56;36.90;99.60
19928;DHT22;10126;50.876;4.470;2022-08-03T06:26:57;37.40;99.10
19928;DHT22;10126;50.876;4.470;2022-08-03T06:28:58;37.70;98.00
19928;DHT22;10126;50.876;4.470;2022-08-03T06:30:59;38.20;97.10
19928;DHT22;10126;50.876;4.470;2022-08-03T06:32:59;38.40;96.50
19928;DHT22;10126;50.876;4.470;2022-08-03T06:35:00;38.30;96.00
19928;DHT22;10126;50.876;4.470;2022-08-03T06:37:01;38.20;95.30
19928;DHT22;10126;50.876;4.470;2022-08-03T06:39:01;37.60;95.70
19928;DHT22;10126;50.876;4.470;2022-08-03T06:41:02;37.10;95.50
19928;DHT22;10126;50.876;4.470;2022-08-03T06:43:03;37.30;95.50
19928;DHT22;10126;50.876;4.470;2022-08-03T06:45:07;38.00;95.10
19928;DHT22;10126;50.876;4.470;2022-08-03T06:47:09;38.30;93.90
19928;DHT22;10126;50.876;4.470;2022-08-03T06:49:09;38.90;92.80
19928;DHT22;10126;50.876;4.470;2022-08-03T06:51:10;38.40;92.90
19928;DHT22;10126;50.876;4.470;2022-08-03T06:53:11;39.10;92.00
19928;DHT22;10126;50.876;4.470;2022-08-03T06:55:12;38.90;92.20
19928;DHT22;10126;50.876;4.470;2022-08-03T06:57:12;39.00;91.60
19928;DHT22;10126;50.876;4.470;2022-08-03T06:59:13;38.80;91.20
19928;DHT22;10126;50.876;4.470;2022-08-03T07:01:14;39.30;90.80
19928;DHT22;10126;50.876;4.470;2022-08-03T07:03:15;39.40;90.20
19928;DHT22;10126;50.876;4.470;2022-08-03T07:05:16;39.30;89.60
19928;DHT22;10126;50.876;4.470;2022-08-03T07:07:17;40.00;88.50
19928;DHT22;10126;50.876;4.470;2022-08-03T07:09:18;39.80;87.10
19928;DHT22;10126;50.876;4.470;2022-08-03T07:11:19;38.70;88.30
19928;DHT22;10126;50.876;4.470;2022-08-03T07:13:19;39.20;88.30
19928;DHT22;10126;50.876;4.470;2022-08-03T07:15:20;40.10;87.40
19928;DHT22;10126;50.876;4.470;2022-08-03T07:17:21;40.10;85.20
19928;DHT22;10126;50.876;4.470;2022-08-03T07:19:21;40.40;83.70
19928;DHT22;10126;50.876;4.470;2022-08-03T07:21:22;39.70;82.70
19928;DHT22;10126;50.876;4.470;2022-08-03T07:23:23;39.90;83.40
19928;DHT22;10126;50.876;4.470;2022-08-03T07:25:24;39.60;82.50
19928;DHT22;10126;50.876;4.470;2022-08-03T07:27:26;39.60;82.80
19928;DHT22;10126;50.876;4.470;2022-08-03T07:29:27;39.20;84.10
19928;DHT22;10126;50.876;4.470;2022-08-03T07:31:28;38.60;84.10
19928;DHT22;10126;50.876;4.470;2022-08-03T07:33:29;38.60;85.30
19928;DHT22;10126;50.876;4.470;2022-08-03T07:35:30;37.50;86.10
19928;DHT22;10126;50.876;4.470;2022-08-03T07:37:31;36.50;89.20
19928;DHT22;10126;50.876;4.470;2022-08-03T07:39:32;37.50;88.00
19928;DHT22;10126;50.876;4.470;2022-08-03T07:41:32;39.30;85.50
19928;DHT22;10126;50.876;4.470;2022-08-03T07:43:33;38.90;83.80
19928;DHT22;10126;50.876;4.470;2022-08-03T07:45:34;37.30;88.00
19928;DHT22;10126;50.876;4.470;2022-08-03T07:47:34;37.50;88.10
19928;DHT22;10126;50.876;4.470;2022-08-03T07:49:41;38.40;87.00
19928;DHT22;10126;50.876;4.470;2022-08-03T07:51:42;38.70;84.70
19928;DHT22;10126;50.876;4.470;2022-08-03T07:53:42;39.90;83.40
19928;DHT22;10126;50.876;4.470;2022-08-03T07:55:43;39.70;82.80
19928;DHT22;10126;50.876;4.470;2022-08-03T07:57:44;39.40;81.40
19928;DHT22;10126;50.876;4.470;2022-08-03T07:59:45;39.20;81.70
19928;DHT22;10126;50.876;4.470;2022-08-03T08:01:46;38.40;82.90
19928;DHT22;10126;50.876;4.470;2022-08-03T08:03:48;39.70;82.10
19928;DHT22;10126;50.876;4.470;2022-08-03T08:05:49;40.30;80.70
19928;DHT22;10126;50.876;4.470;2022-08-03T08:07:49;39.70;80.30
19928;DHT22;10126;50.876;4.470;2022-08-03T08:09:50;40.60;79.20
19928;DHT22;10126;50.876;4.470;2022-08-03T08:11:51;39.50;79.80
19928;DHT22;10126;50.876;4.470;2022-08-03T08:13:51;39.30;81.60
19928;DHT22;10126;50.876;4.470;2022-08-03T08:15:52;38.40;82.70
19928;DHT22;10126;50.876;4.470;2022-08-03T08:17:54;39.80;81.40
19928;DHT22;10126;50.876;4.470;2022-08-03T08:19:55;40.90;78.70
19928;DHT22;10126;50.876;4.470;2022-08-03T08:21:55;40.90;77.30
19928;DHT22;10126;50.876;4.470;2022-08-03T08:23:56;41.50;76.70
19928;DHT22;10126;50.876;4.470;2022-08-03T08:25:57;42.20;73.80
19928;DHT22;10126;50.876;4.470;2022-08-03T08:27:58;42.00;73.40
19928;DHT22;10126;50.876;4.470;2022-08-03T08:30:03;41.80;72.70
19928;DHT22;10126;50.876;4.470;2022-08-03T08:32:04;42.00;72.10
19928;DHT22;10126;50.876;4.470;2022-08-03T08:34:05;42.20;72.10
19928;DHT22;10126;50.876;4.470;2022-08-03T08:36:06;41.70;71.20
19928;DHT22;10126;50.876;4.470;2022-08-03T08:38:07;41.40;71.70
19928;DHT22;10126;50.876;4.470;2022-08-03T08:40:09;42.20;70.40
19928;DHT22;10126;50.876;4.470;2022-08-03T08:42:10;42.50;69.20
19928;DHT22;10126;50.876;4.470;2022-08-03T08:44:11;42.10;69.00
19928;DHT22;10126;50.876;4.470;2022-08-03T08:46:12;42.40;68.80
19928;DHT22;10126;50.876;4.470;2022-08-03T08:48:14;43.00;67.30
19928;DHT22;10126;50.876;4.470;2022-08-03T08:50:19;42.40;67.70
19928;DHT22;10126;50.876;4.470;2022-08-03T08:52:26;42.60;66.60
19928;DHT22;10126;50.876;4.470;2022-08-03T08:54:28;42.60;67.20
19928;DHT22;10126;50.876;4.470;2022-08-03T08:56:30;42.10;65.50
19928;DHT22;10126;50.876;4.470;2022-08-03T08:58:37;42.50;65.20
19928;DHT22;10126;50.876;4.470;2022-08-03T09:00:40;43.00;64.90
19928;DHT22;10126;50.876;4.470;2022-08-03T09:02:42;43.10;64.50
19928;DHT22;10126;50.876;4.470;2022-08-03T09:04:43;43.00;63.70
19928;DHT22;10126;50.876;4.470;2022-08-03T09:06:44;43.00;63.30
19928;DHT22;10126;50.876;4.470;2022-08-03T09:08:45;42.00;62.10
19928;DHT22;10126;50.876;4.470;2022-08-03T09:10:46;40.70;64.90
19928;DHT22;10126;50.876;4.470;2022-08-03T09:12:49;39.70;66.80
19928;DHT22;10126;50.876;4.470;2022-08-03T09:14:50;40.90;66.00
19928;DHT22;10126;50.876;4.470;2022-08-03T09:16:58;41.80;65.00
19928;DHT22;10126;50.876;4.470;2022-08-03T09:19:11;41.70;64.70
19928;DHT22;10126;50.876;4.470;2022-08-03T09:21:27;41.30;64.50
19928;DHT22;10126;50.876;4.470;2022-08-03T09:23:56;42.10;64.90
19928;DHT22;10126;50.876;4.470;2022-08-03T09:25:57;41.00;66.30
19928;DHT22;10126;50.876;4.470;2022-08-03T09:28:15;41.80;65.70
19928;DHT22;10126;50.876;4.470;2022-08-03T09:30:17;41.70;65.30
19928;DHT22;10126;50.876;4.470;2022-08-03T09:32:20;41.40;64.40
19928;DHT22;10126;50.876;4.470;2022-08-03T09:34:24;41.60;64.70
19928;DHT22;10126;50.876;4.470;2022-08-03T09:36:51;40.60;65.50
19928;DHT22;10126;50.876;4.470;2022-08-03T09:39:10;40.70;66.80
19928;DHT22;10126;50.876;4.470;2022-08-03T09:41:17;41.60;65.40
19928;DHT22;10126;50.876;4.470;2022-08-03T09:43:18;41.50;65.50
19928;DHT22;10126;50.876;4.470;2022-08-03T09:45:25;42.60;64.90
19928;DHT22;10126;50.876;4.470;2022-08-03T09:47:29;42.10;63.60
19928;DHT22;10126;50.876;4.470;2022-08-03T09:49:31;42.50;64.10
19928;DHT22;10126;50.876;4.470;2022-08-03T09:51:31;42.30;64.50
19928;DHT22;10126;50.876;4.470;2022-08-03T09:53:42;42.50;64.40
19928;DHT22;10126;50.876;4.470;2022-08-03T09:56:09;43.30;64.10
19928;DHT22;10126;50.876;4.470;2022-08-03T09:58:10;42.10;64.00
19928;DHT22;10126;50.876;4.470;2022-08-03T10:00:15;41.90;64.40
19928;DHT22;10126;50.876;4.470;2022-08-03T10:02:23;42.60;63.80
19928;DHT22;10126;50.876;4.470;2022-08-03T10:04:25;42.80;64.20
19928;DHT22;10126;50.876;4.470;2022-08-03T10:06:25;42.60;64.50
19928;DHT22;10126;50.876;4.470;2022-08-03T10:08:26;41.50;66.30
19928;DHT22;10126;50.876;4.470;2022-08-03T10:10:41;40.60;66.50
19928;DHT22;10126;50.876;4.470;2022-08-03T10:12:43;40.70;67.90
19928;DHT22;10126;50.876;4.470;2022-08-03T10:14:45;40.70;66.40
19928;DHT22;10126;50.876;4.470;2022-08-03T10:16:47;41.00;66.80
19928;DHT22;10126;50.876;4.470;2022-08-03T10:18:47;41.30;66.80
19928;DHT22;10126;50.876;4.470;2022-08-03T10:20:52;41.10;65.90
19928;DHT22;10126;50.876;4.470;2022-08-03T10:22:55;41.40;66.70
19928;DHT22;10126;50.876;4.470;2022-08-03T10:27:06;41.80;65.80
19928;DHT22;10126;50.876;4.470;2022-08-03T10:29:11;41.40;65.40
19928;DHT22;10126;50.876;4.470;2022-08-03T10:31:15;40.30;66.50
19928;DHT22;10126;50.876;4.470;2022-08-03T10:33:23;38.90;68.30
19928;DHT22;10126;50.876;4.470;2022-08-03T10:35:26;37.40;71.60
19928;DHT22;10126;50.876;4.470;2022-08-03T10:37:29;36.20;75.20
19928;DHT22;10126;50.876;4.470;2022-08-03T10:39:31;35.60;77.00
19928;DHT22;10126;50.876;4.470;2022-08-03T10:41:38;35.00;77.80
19928;DHT22;10126;50.876;4.470;2022-08-03T10:43:50;34.40;80.40
19928;DHT22;10126;50.876;4.470;2022-08-03T10:45:52;34.20;81.80
19928;DHT22;10126;50.876;4.470;2022-08-03T10:47:55;34.20;82.10
19928;DHT22;10126;50.876;4.470;2022-08-03T10:49:56;34.10;82.20
19928;DHT22;10126;50.876;4.470;2022-08-03T10:51:58;34.00;82.60
19928;DHT22;10126;50.876;4.470;2022-08-03T10:53:59;33.70;83.10
19928;DHT22;10126;50.876;4.470;2022-08-03T10:56:00;33.60;84.00
19928;DHT22;10126;50.876;4.470;2022-08-03T11:00:48;33.60;84.00
19928;DHT22;10126;50.876;4.470;2022-08-03T11:03:16;33.50;85.40
19928;DHT22;10126;50.876;4.470;2022-08-03T11:05:27;33.50;84.90
19928;DHT22;10126;50.876;4.470;2022-08-03T11:07:28;33.50;85.80
19928;DHT22;10126;50.876;4.470;2022-08-03T11:09:43;33.50;85.70
19928;DHT22;10126;50.876;4.470;2022-08-03T11:11:47;33.30;86.80
19928;DHT22;10126;50.876;4.470;2022-08-03T11:16:18;33.50;86.00
19928;DHT22;10126;50.876;4.470;2022-08-03T11:18:19;33.70;86.10
19928;DHT22;10126;50.876;4.470;2022-08-03T11:20:44;33.90;86.50
19928;DHT22;10126;50.876;4.470;2022-08-03T11:22:49;33.90;86.90
19928;DHT22;10126;50.876;4.470;2022-08-03T11:29:27;33.50;86.80
19928;DHT22;10126;50.876;4.470;2022-08-03T11:31:43;33.50;87.20
19928;DHT22;10126;50.876;4.470;2022-08-03T11:34:06;33.60;87.80
19928;DHT22;10126;50.876;4.470;2022-08-03T11:36:07;33.50;86.90
19928;DHT22;10126;50.876;4.470;2022-08-03T11:38:09;33.10;89.10
19928;DHT22;10126;50.876;4.470;2022-08-03T11:42:43;33.40;87.90
19928;DHT22;10126;50.876;4.470;2022-08-03T11:44:45;33.60;87.00
19928;DHT22;10126;50.876;4.470;2022-08-03T11:46:46;33.60;88.10
19928;DHT22;10126;50.876;4.470;2022-08-03T11:48:49;33.80;86.40
19928;DHT22;10126;50.876;4.470;2022-08-03T11:50:50;33.80;85.80
19928;DHT22;10126;50.876;4.470;2022-08-03T11:52:50;33.90;84.60
19928;DHT22;10126;50.876;4.470;2022-08-03T11:54:52;33.90;87.20
19928;DHT22;10126;50.876;4.470;2022-08-03T11:56:53;34.00;87.20
19928;DHT22;10126;50.876;4.470;2022-08-03T11:58:55;33.90;85.60
19928;DHT22;10126;50.876;4.470;2022-08-03T12:01:06;33.70;86.70
19928;DHT22;10126;50.876;4.470;2022-08-03T12:03:18;33.80;88.10
19928;DHT22;10126;50.876;4.470;2022-08-03T12:05:18;33.90;86.80
19928;DHT22;10126;50.876;4.470;2022-08-03T12:07:19;33.80;85.40
19928;DHT22;10126;50.876;4.470;2022-08-03T12:09:20;33.40;86.10
19928;DHT22;10126;50.876;4.470;2022-08-03T12:11:22;33.20;85.60
19928;DHT22;10126;50.876;4.470;2022-08-03T12:13:23;33.40;87.10
19928;DHT22;10126;50.876;4.470;2022-08-03T12:15:27;33.50;86.70
19928;DHT22;10126;50.876;4.470;2022-08-03T12:17:46;33.50;86.10
19928;DHT22;10126;50.876;4.470;2022-08-03T12:19:48;33.70;86.80
19928;DHT22;10126;50.876;4.470;2022-08-03T12:21:49;33.70;88.00
19928;DHT22;10126;50.876;4.470;2022-08-03T12:23:52;33.70;88.30
19928;DHT22;10126;50.876;4.470;2022-08-03T12:26:01;33.80;86.50
19928;DHT22;10126;50.876;4.470;2022-08-03T12:28:07;34.10;86.90
19928;DHT22;10126;50.876;4.470;2022-08-03T12:30:09;34.20;85.80
19928;DHT22;10126;50.876;4.470;2022-08-03T12:32:14;34.10;85.20
19928;DHT22;10126;50.876;4.470;2022-08-03T12:34:15;33.80;85.70
19928;DHT22;10126;50.876;4.470;2022-08-03T12:36:15;33.70;86.70
19928;DHT22;10126;50.876;4.470;2022-08-03T12:38:21;33.60;86.80
19928;DHT22;10126;50.876;4.470;2022-08-03T12:40:25;33.70;85.90
19928;DHT22;10126;50.876;4.470;2022-08-03T12:42:34;33.70;84.30
19928;DHT22;10126;50.876;4.470;2022-08-03T12:44:35;33.80;86.20
19928;DHT22;10126;50.876;4.470;2022-08-03T12:46:38;34.10;85.70
19928;DHT22;10126;50.876;4.470;2022-08-03T12:48:57;34.10;85.50
19928;DHT22;10126;50.876;4.470;2022-08-03T12:51:11;33.90;86.10
19928;DHT22;10126;50.876;4.470;2022-08-03T12:53:12;33.80;84.60
19928;DHT22;10126;50.876;4.470;2022-08-03T12:55:27;33.70;84.10
19928;DHT22;10126;50.876;4.470;2022-08-03T12:57:40;34.20;85.40
19928;DHT22;10126;50.876;4.470;2022-08-03T12:59:43;34.60;82.50
19928;DHT22;10126;50.876;4.470;2022-08-03T13:01:46;34.50;82.70
19928;DHT22;10126;50.876;4.470;2022-08-03T13:03:47;34.20;84.30
19928;DHT22;10126;50.876;4.470;2022-08-03T13:05:48;34.10;84.40
19928;DHT22;10126;50.876;4.470;2022-08-03T13:07:49;34.10;82.80
19928;DHT22;10126;50.876;4.470;2022-08-03T13:09:52;34.20;83.30
19928;DHT22;10126;50.876;4.470;2022-08-03T13:12:10;34.20;84.40
19928;DHT22;10126;50.876;4.470;2022-08-03T13:14:10;34.40;83.00
19928;DHT22;10126;50.876;4.470;2022-08-03T13:16:14;34.40;82.00
19928;DHT22;10126;50.876;4.470;2022-08-03T13:18:15;34.60;82.20
19928;DHT22;10126;50.876;4.470;2022-08-03T13:20:15;34.50;82.00
19928;DHT22;10126;50.876;4.470;2022-08-03T13:22:19;34.60;82.50
19928;DHT22;10126;50.876;4.470;2022-08-03T13:24:20;34.40;83.70